Time,TemperatureF,DewpointF,PressureIn,WindDirection,WindDirectionDegrees,WindSpeedMPH,WindSpeedGustMPH,Humidity,HourlyPrecipIn,Conditions,Clouds,dailyrainin,SolarRadiationWatts/m^2,SoftwareType,DateUTC
2013-06-08 00:08:00,68.5,68.6,29.68,East,83,0.0,0.0,100,0.00,,,-99.99,1.0,HOBO +U30 +Weather +,2013-06-08 04:08:00,
2013-06-08 00:18:00,68.5,68.5,29.67,East,81,0.0,0.0,100,0.00,,,-99.99,1.0,HOBO +U30 +Weather +,2013-06-08 04:18:00,
2013-06-08 00:28:00,68.6,68.7,29.67,East,83,0.0,0.0,100,0.00,,,-99.99,1.0,HOBO +U30 +Weather +,2013-06-08 04:28:00,
2013-06-08 00:38:00,68.6,68.7,29.67,East,83,0.0,0.0,100,0.00,,,-99.99,1.0,HOBO +U30 +Weather +,2013-06-08 04:38:00,
2013-06-08 00:48:00,68.8,68.8,29.67,East,84,0.0,0.0,100,0.00,,,-99.99,1.0,HOBO +U30 +Weather +,2013-06-08 04:48:00,
2013-06-08 00:58:00,69.0,69.0,29.67,East,81,0.0,0.0,100,0.00,,,-99.99,1.0,HOBO +U30 +Weather +,2013-06-08 04:58:00,
2013-06-08 01:08:00,69.0,69.1,29.66,East,83,0.0,0.0,100,0.00,,,-99.99,1.0,HOBO +U30 +Weather +,2013-06-08 05:08:00,
2013-06-08 01:18:00,69.1,69.2,29.66,East,81,0.0,0.0,100,0.00,,,-99.99,1.0,HOBO +U30 +Weather +,2013-06-08 05:18:00,
2013-06-08 01:28:00,69.0,69.1,29.66,East,83,0.0,0.0,100,0.00,,,-99.99,1.0,HOBO +U30 +Weather +,2013-06-08 05:28:00,
2013-06-08 01:38:00,69.0,69.1,29.66,ENE,65,0.0,0.0,100,0.00,,,-99.99,1.0,HOBO +U30 +Weather +,2013-06-08 05:38:00,
2013-06-08 01:48:00,68.9,69.0,29.66,East,81,0.0,0.0,100,0.00,,,-99.99,1.0,HOBO +U30 +Weather +,2013-06-08 05:48:00,
2013-06-08 01:58:00,68.7,68.8,29.64,East,79,0.0,0.0,100,0.00,,,-99.99,1.0,HOBO +U30 +Weather +,2013-06-08 05:58:00,
2013-06-08 02:08:00,68.5,68.5,29.63,East,81,0.0,0.0,100,0.00,,,-99.99,1.0,HOBO +U30 +Weather +,2013-06-08 06:08:00,
2013-06-08 02:18:00,68.2,68.3,29.63,East,80,0.0,0.0,100,0.00,,,-99.99,1.0,HOBO +U30 +Weather +,2013-06-08 06:18:00,
2013-06-08 02:28:00,68.0,68.1,29.62,East,81,0.0,0.0,100,0.00,,,-99.99,1.0,HOBO +U30 +Weather +,2013-06-08 06:28:00,
2013-06-08 02:38:00,68.1,68.1,29.61,East,84,0.0,0.0,100,0.00,,,-99.99,1.0,HOBO +U30 +Weather +,2013-06-08 06:38:00,
2013-06-08 02:48:00,67.8,67.9,29.60,East,84,0.0,0.0,100,0.00,,,-99.99,1.0,HOBO +U30 +Weather +,2013-06-08 06:48:00,
2013-06-08 02:58:00,68.0,68.1,29.60,East,83,0.0,0.0,100,0.00,,,-99.99,1.0,HOBO +U30 +Weather +,2013-06-08 06:58:00,
2013-06-08 03:08:00,68.4,68.4,29.60,East,84,0.0,0.0,100,0.00,,,-99.99,1.0,HOBO +U30 +Weather +,2013-06-08 07:08:00,
2013-06-08 03:18:00,68.5,68.5,29.60,East,80,0.0,0.0,100,0.00,,,-99.99,1.0,HOBO +U30 +Weather +,2013-06-08 07:18:00,
2013-06-08 03:28:00,68.0,68.1,29.60,East,81,0.0,0.0,100,0.00,,,-99.99,1.0,HOBO +U30 +Weather +,2013-06-08 07:28:00,
2013-06-08 03:38:00,67.9,68.0,29.58,East,81,0.0,0.0,100,0.00,,,-99.99,1.0,HOBO +U30 +Weather +,2013-06-08 07:38:00,
2013-06-08 03:48:00,67.7,67.8,29.59,East,80,0.0,0.0,100,0.00,,,-99.99,1.0,HOBO +U30 +Weather +,2013-06-08 07:48:00,
2013-06-08 03:58:00,67.6,67.6,29.58,East,87,0.0,0.0,100,0.00,,,-99.99,1.0,HOBO +U30 +Weather +,2013-06-08 07:58:00,
2013-06-08 04:08:00,67.6,67.6,29.57,East,90,0.0,0.0,100,0.00,,,-99.99,1.0,HOBO +U30 +Weather +,2013-06-08 08:08:00,
2013-06-08 04:18:00,67.5,67.6,29.57,East,90,0.0,0.0,100,0.00,,,-99.99,1.0,HOBO +U30 +Weather +,2013-06-08 08:18:00,
2013-06-08 04:28:00,67.3,67.3,29.56,East,90,0.0,0.0,100,0.00,,,-99.99,1.0,HOBO +U30 +Weather +,2013-06-08 08:28:00,
2013-06-08 04:38:00,67.0,67.0,29.55,East,90,0.0,0.0,100,0.00,,,-99.99,1.0,HOBO +U30 +Weather +,2013-06-08 08:38:00,
2013-06-08 04:48:00,66.8,66.8,29.55,East,90,0.0,0.0,100,0.00,,,-99.99,1.0,HOBO +U30 +Weather +,2013-06-08 08:48:00,
2013-06-08 04:58:00,66.5,66.6,29.54,East,90,0.0,0.0,100,0.00,,,-99.99,1.0,HOBO +U30 +Weather +,2013-06-08 08:58:00,
2013-06-08 05:08:00,66.5,66.6,29.54,East,90,0.0,0.0,100,0.00,,,-99.99,1.0,HOBO +U30 +Weather +,2013-06-08 09:08:00,
2013-06-08 05:18:00,66.7,66.7,29.53,East,90,0.0,0.0,100,0.00,,,-99.99,1.0,HOBO +U30 +Weather +,2013-06-08 09:18:00,
2013-06-08 05:28:00,66.8,66.8,29.52,East,90,0.0,0.0,100,0.00,,,-99.99,1.0,HOBO +U30 +Weather +,2013-06-08 09:28:00,
2013-06-08 05:38:00,66.6,66.7,29.51,East,90,0.0,0.0,100,0.00,,,-99.99,1.0,HOBO +U30 +Weather +,2013-06-08 09:38:00,
2013-06-08 05:48:00,66.4,66.5,29.52,East,90,0.0,0.0,100,0.00,,,-99.99,2.0,HOBO +U30 +Weather +,2013-06-08 09:48:00,
2013-06-08 05:58:00,66.3,66.3,29.51,East,90,0.0,0.0,100,0.00,,,-99.99,2.0,HOBO +U30 +Weather +,2013-06-08 09:58:00,
2013-06-08 06:08:00,66.2,66.3,29.50,East,90,0.0,0.0,100,0.00,,,-99.99,3.0,HOBO +U30 +Weather +,2013-06-08 10:08:00,
2013-06-08 06:18:00,66.1,66.1,29.50,East,90,0.0,0.0,100,0.00,,,-99.99,2.0,HOBO +U30 +Weather +,2013-06-08 10:18:00,
2013-06-08 06:28:00,65.9,66.0,29.49,East,90,0.0,0.0,100,0.00,,,-99.99,2.0,HOBO +U30 +Weather +,2013-06-08 10:28:00,
2013-06-08 06:38:00,65.6,65.6,29.49,East,90,0.0,0.0,100,0.00,,,-99.99,3.0,HOBO +U30 +Weather +,2013-06-08 10:38:00,
2013-06-08 06:48:00,65.2,65.2,29.49,East,90,0.0,0.0,100,0.00,,,-99.99,2.0,HOBO +U30 +Weather +,2013-06-08 10:48:00,
2013-06-08 06:58:00,65.0,65.0,29.49,East,90,0.0,0.0,100,0.00,,,-99.99,7.0,HOBO +U30 +Weather +,2013-06-08 10:58:00,
2013-06-08 07:08:00,64.8,64.8,29.50,East,90,0.0,0.0,100,0.00,,,-99.99,21.0,HOBO +U30 +Weather +,2013-06-08 11:08:00,
2013-06-08 07:18:00,64.6,64.6,29.50,East,90,0.0,0.0,100,0.00,,,-99.99,16.0,HOBO +U30 +Weather +,2013-06-08 11:18:00,
2013-06-08 07:28:00,64.1,64.1,29.50,East,90,0.0,0.0,100,0.00,,,-99.99,24.0,HOBO +U30 +Weather +,2013-06-08 11:28:00,
2013-06-08 07:38:00,64.2,64.2,29.51,East,90,0.0,0.0,100,0.00,,,-99.99,28.0,HOBO +U30 +Weather +,2013-06-08 11:38:00,
2013-06-08 07:48:00,63.7,63.8,29.51,East,90,0.0,0.0,100,0.00,,,-99.99,13.0,HOBO +U30 +Weather +,2013-06-08 11:48:00,
2013-06-08 07:58:00,63.4,63.4,29.51,East,90,0.0,0.0,100,0.00,,,-99.99,22.0,HOBO +U30 +Weather +,2013-06-08 11:58:00,
2013-06-08 08:08:00,63.6,63.7,29.52,East,90,0.0,0.0,100,0.00,,,-99.99,44.0,HOBO +U30 +Weather +,2013-06-08 12:08:00,
2013-06-08 08:09:00,64.6,64.7,29.52,East,90,0.0,0.0,100,0.00,,,-99.99,59.0,HOBO +U30 +Weather +,2013-06-08 12:09:00,
2013-06-08 08:18:00,64.7,64.7,29.53,East,90,0.0,0.0,100,0.00,,,-99.99,34.0,HOBO +U30 +Weather +,2013-06-08 12:18:00,
2013-06-08 08:19:00,64.9,64.9,29.52,East,90,0.0,0.0,100,0.00,,,-99.99,79.0,HOBO +U30 +Weather +,2013-06-08 12:19:00,
2013-06-08 08:28:00,64.5,64.6,29.53,East,90,0.0,0.0,100,0.00,,,-99.99,36.0,HOBO +U30 +Weather +,2013-06-08 12:28:00,
2013-06-08 08:38:00,64.6,64.6,29.54,East,90,0.0,0.0,100,0.00,,,-99.99,42.0,HOBO +U30 +Weather +,2013-06-08 12:38:00,
2013-06-08 08:48:00,62.7,62.8,29.57,East,90,0.0,0.0,100,0.00,,,-99.99,68.0,HOBO +U30 +Weather +,2013-06-08 12:48:00,
2013-06-08 08:58:00,61.4,61.4,29.58,East,90,0.0,0.0,100,0.00,,,-99.99,83.0,HOBO +U30 +Weather +,2013-06-08 12:58:00,
2013-06-08 09:08:00,60.9,60.9,29.60,East,90,0.0,0.0,100,0.00,,,-99.99,57.0,HOBO +U30 +Weather +,2013-06-08 13:08:00,
2013-06-08 09:18:00,60.4,60.4,29.61,East,90,0.0,0.0,100,0.00,,,-99.99,59.0,HOBO +U30 +Weather +,2013-06-08 13:18:00,
2013-06-08 09:28:00,60.4,60.4,29.62,East,90,0.0,0.0,100,0.00,,,-99.99,113.0,HOBO +U30 +Weather +,2013-06-08 13:28:00,
2013-06-08 09:38:00,60.9,61.0,29.62,East,90,0.0,0.0,100,0.00,,,-99.99,84.0,HOBO +U30 +Weather +,2013-06-08 13:38:00,
2013-06-08 09:48:00,60.5,60.5,29.61,East,90,0.0,0.0,100,0.00,,,-99.99,106.0,HOBO +U30 +Weather +,2013-06-08 13:48:00,
2013-06-08 09:58:00,61.1,61.1,29.62,East,87,0.0,0.0,100,0.00,,,-99.99,107.0,HOBO +U30 +Weather +,2013-06-08 13:58:00,
2013-06-08 10:08:00,61.4,61.4,29.63,East,87,0.0,0.0,100,0.00,,,-99.99,91.0,HOBO +U30 +Weather +,2013-06-08 14:08:00,
2013-06-08 10:18:00,61.7,61.7,29.65,East,88,0.0,0.0,100,0.00,,,-99.99,103.0,HOBO +U30 +Weather +,2013-06-08 14:18:00,
2013-06-08 10:28:00,63.0,63.0,29.66,East,88,0.0,0.0,100,0.00,,,-99.99,117.0,HOBO +U30 +Weather +,2013-06-08 14:28:00,
2013-06-08 10:38:00,64.1,64.1,29.68,East,88,0.0,0.0,100,0.00,,,-99.99,109.0,HOBO +U30 +Weather +,2013-06-08 14:38:00,
2013-06-08 10:48:00,62.8,62.8,29.70,East,88,0.0,0.0,100,0.00,,,-99.99,89.0,HOBO +U30 +Weather +,2013-06-08 14:48:00,
2013-06-08 10:49:00,62.1,62.1,29.70,East,88,0.0,0.0,100,0.00,,,-99.99,108.0,HOBO +U30 +Weather +,2013-06-08 14:49:00,
2013-06-08 10:50:00,62.2,62.2,29.70,East,88,0.0,0.0,100,0.00,,,-99.99,107.0,HOBO +U30 +Weather +,2013-06-08 14:50:00,
2013-06-08 10:51:00,62.4,62.4,29.70,East,88,0.0,0.0,100,0.00,,,-99.99,108.0,HOBO +U30 +Weather +,2013-06-08 14:51:00,
2013-06-08 10:52:00,62.8,62.9,29.71,East,88,0.0,0.0,100,0.00,,,-99.99,101.0,HOBO +U30 +Weather +,2013-06-08 14:52:00,
2013-06-08 10:53:00,63.1,63.1,29.71,East,87,0.0,0.0,100,0.00,,,-99.99,96.0,HOBO +U30 +Weather +,2013-06-08 14:53:00,
2013-06-08 10:54:00,63.4,63.4,29.71,East,87,0.0,0.0,100,0.00,,,-99.99,97.0,HOBO +U30 +Weather +,2013-06-08 14:54:00,
2013-06-08 10:55:00,63.5,63.6,29.72,East,87,0.0,0.0,100,0.00,,,-99.99,87.0,HOBO +U30 +Weather +,2013-06-08 14:55:00,
2013-06-08 10:56:00,63.5,63.5,29.72,East,87,0.0,0.0,100,0.00,,,-99.99,81.0,HOBO +U30 +Weather +,2013-06-08 14:56:00,
2013-06-08 10:57:00,63.6,63.6,29.71,East,88,0.0,0.0,100,0.00,,,-99.99,79.0,HOBO +U30 +Weather +,2013-06-08 14:57:00,
2013-06-08 10:58:00,63.6,63.6,29.72,East,88,0.0,0.0,100,0.00,,,-99.99,79.0,HOBO +U30 +Weather +,2013-06-08 14:58:00,
2013-06-08 11:08:00,63.3,63.3,29.72,East,87,0.0,0.0,100,0.00,,,-99.99,78.0,HOBO +U30 +Weather +,2013-06-08 15:08:00,
2013-06-08 11:17:00,63.0,63.1,29.72,East,83,0.0,0.0,100,0.00,,,-99.99,84.0,HOBO +U30 +Weather +,2013-06-08 15:17:00,
2013-06-08 11:18:00,63.3,63.3,29.73,East,88,0.0,0.0,100,0.00,,,-99.99,83.0,HOBO +U30 +Weather +,2013-06-08 15:18:00,
2013-06-08 11:27:00,63.2,63.2,29.74,East,88,0.0,0.0,100,0.00,,,-99.99,102.0,HOBO +U30 +Weather +,2013-06-08 15:27:00,
2013-06-08 11:28:00,63.4,63.4,29.73,East,88,0.0,0.0,100,0.00,,,-99.99,83.0,HOBO +U30 +Weather +,2013-06-08 15:28:00,
2013-06-08 11:37:00,63.4,63.4,29.74,East,88,0.0,0.0,100,0.00,,,-99.99,102.0,HOBO +U30 +Weather +,2013-06-08 15:37:00,
2013-06-08 11:47:00,62.9,62.9,29.74,East,86,0.0,0.0,100,0.00,,,-99.99,91.0,HOBO +U30 +Weather +,2013-06-08 15:47:00,
2013-06-08 11:57:00,64.8,64.8,29.75,East,88,0.0,0.0,100,0.00,,,-99.99,112.0,HOBO +U30 +Weather +,2013-06-08 15:57:00,
2013-06-08 12:07:00,66.3,66.4,29.76,East,88,0.0,0.0,100,0.00,,,-99.99,119.0,HOBO +U30 +Weather +,2013-06-08 16:07:00,
2013-06-08 12:17:00,67.8,67.9,29.76,East,87,0.0,0.0,100,0.00,,,-99.99,149.0,HOBO +U30 +Weather +,2013-06-08 16:17:00,
2013-06-08 12:27:00,69.3,69.4,29.76,East,86,0.0,0.0,100,0.00,,,-99.99,277.0,HOBO +U30 +Weather +,2013-06-08 16:27:00,
2013-06-08 12:37:00,72.2,71.2,29.77,East,87,0.0,0.0,96,0.00,,,-99.99,364.0,HOBO +U30 +Weather +,2013-06-08 16:37:00,
2013-06-08 12:47:00,73.0,70.1,29.78,East,88,0.0,0.0,90,0.00,,,-99.99,251.0,HOBO +U30 +Weather +,2013-06-08 16:47:00,
2013-06-08 12:57:00,74.4,69.9,29.77,East,88,0.0,0.0,85,0.00,,,-99.99,764.0,HOBO +U30 +Weather +,2013-06-08 16:57:00,
2013-06-08 13:07:00,78.0,73.9,29.77,East,88,0.0,0.0,87,0.00,,,-99.99,526.0,HOBO +U30 +Weather +,2013-06-08 17:07:00,
2013-06-08 13:17:00,78.6,71.7,29.77,East,88,0.0,0.0,79,0.00,,,-99.99,316.0,HOBO +U30 +Weather +,2013-06-08 17:17:00,
2013-06-08 13:27:00,78.9,71.5,29.78,East,88,0.0,0.0,77,0.00,,,-99.99,367.0,HOBO +U30 +Weather +,2013-06-08 17:27:00,
2013-06-08 13:37:00,80.3,71.8,29.78,East,87,0.0,0.0,75,0.00,,,-99.99,341.0,HOBO +U30 +Weather +,2013-06-08 17:37:00,
2013-06-08 13:47:00,78.4,69.5,29.78,East,87,0.0,0.0,74,0.00,,,-99.99,291.0,HOBO +U30 +Weather +,2013-06-08 17:47:00,
2013-06-08 13:57:00,82.2,72.9,29.79,East,88,0.0,0.0,73,0.00,,,-99.99,331.0,HOBO +U30 +Weather +,2013-06-08 17:57:00,
2013-06-08 14:07:00,81.3,71.2,29.79,East,88,0.0,0.0,71,0.00,,,-99.99,243.0,HOBO +U30 +Weather +,2013-06-08 18:07:00,
2013-06-08 14:17:00,80.5,72.1,29.79,East,88,0.0,0.0,75,0.00,,,-99.99,452.0,HOBO +U30 +Weather +,2013-06-08 18:17:00,
2013-06-08 14:27:00,81.0,73.1,29.79,East,88,0.0,0.0,76,0.00,,,-99.99,702.0,HOBO +U30 +Weather +,2013-06-08 18:27:00,
2013-06-08 14:37:00,80.9,71.7,29.80,East,88,0.0,0.0,73,0.00,,,-99.99,657.0,HOBO +U30 +Weather +,2013-06-08 18:37:00,
2013-06-08 14:47:00,80.5,73.3,29.80,East,88,0.0,0.0,78,0.00,,,-99.99,456.0,HOBO +U30 +Weather +,2013-06-08 18:47:00,
2013-06-08 14:57:00,81.0,72.0,29.80,East,87,0.0,0.0,74,0.00,,,-99.99,219.0,HOBO +U30 +Weather +,2013-06-08 18:57:00,
2013-06-08 15:07:00,80.1,70.4,29.80,East,88,0.0,0.0,72,0.00,,,-99.99,376.0,HOBO +U30 +Weather +,2013-06-08 19:07:00,
2013-06-08 15:17:00,81.1,70.8,29.80,East,86,0.0,0.0,71,0.00,,,-99.99,153.0,HOBO +U30 +Weather +,2013-06-08 19:17:00,
2013-06-08 15:27:00,79.7,69.3,29.81,East,88,0.0,0.0,70,0.00,,,-99.99,201.0,HOBO +U30 +Weather +,2013-06-08 19:27:00,
2013-06-08 15:37:00,80.4,70.0,29.81,East,88,0.0,0.0,70,0.00,,,-99.99,291.0,HOBO +U30 +Weather +,2013-06-08 19:37:00,
2013-06-08 15:47:00,79.9,70.8,29.81,East,88,0.0,0.0,73,0.00,,,-99.99,173.0,HOBO +U30 +Weather +,2013-06-08 19:47:00,
2013-06-08 15:57:00,79.8,69.7,29.82,East,88,0.0,0.0,71,0.00,,,-99.99,143.0,HOBO +U30 +Weather +,2013-06-08 19:57:00,
2013-06-08 16:07:00,76.5,67.4,29.82,East,87,0.0,0.0,73,0.00,,,-99.99,213.0,HOBO +U30 +Weather +,2013-06-08 20:07:00,
2013-06-08 16:17:00,78.7,69.1,29.82,East,88,0.0,0.0,72,0.00,,,-99.99,328.0,HOBO +U30 +Weather +,2013-06-08 20:17:00,
2013-06-08 16:27:00,78.6,69.5,29.82,East,88,0.0,0.0,73,0.00,,,-99.99,116.0,HOBO +U30 +Weather +,2013-06-08 20:27:00,
2013-06-08 16:37:00,78.3,69.0,29.83,East,87,0.0,0.0,73,0.00,,,-99.99,111.0,HOBO +U30 +Weather +,2013-06-08 20:37:00,
2013-06-08 16:47:00,78.4,68.1,29.83,East,88,0.0,0.0,70,0.00,,,-99.99,139.0,HOBO +U30 +Weather +,2013-06-08 20:47:00,
2013-06-08 16:57:00,78.3,68.7,29.83,East,88,0.0,0.0,72,0.00,,,-99.99,121.0,HOBO +U30 +Weather +,2013-06-08 20:57:00,
2013-06-08 17:07:00,77.3,69.6,29.83,East,88,0.0,0.0,77,0.00,,,-99.99,98.0,HOBO +U30 +Weather +,2013-06-08 21:07:00,
2013-06-08 17:08:00,77.2,68.0,29.84,East,88,0.0,0.0,73,0.00,,,-99.99,278.0,HOBO +U30 +Weather +,2013-06-08 21:08:00,
2013-06-08 17:17:00,77.2,69.2,29.84,East,86,0.0,0.0,76,0.00,,,-99.99,89.0,HOBO +U30 +Weather +,2013-06-08 21:17:00,
2013-06-08 17:18:00,76.9,67.8,29.84,East,88,0.0,0.0,73,0.00,,,-99.99,258.0,HOBO +U30 +Weather +,2013-06-08 21:18:00,
2013-06-08 17:27:00,77.4,68.7,29.83,East,86,0.0,0.0,74,0.00,,,-99.99,94.0,HOBO +U30 +Weather +,2013-06-08 21:27:00,
2013-06-08 17:37:00,77.6,69.2,29.84,East,86,0.0,0.0,75,0.00,,,-99.99,87.0,HOBO +U30 +Weather +,2013-06-08 21:37:00,
2013-06-08 17:47:00,77.6,67.4,29.83,East,87,0.0,0.0,70,0.00,,,-99.99,89.0,HOBO +U30 +Weather +,2013-06-08 21:47:00,
2013-06-08 17:57:00,71.2,64.5,29.84,East,88,0.0,0.0,79,0.00,,,-99.99,73.0,HOBO +U30 +Weather +,2013-06-08 21:57:00,
2013-06-08 18:07:00,74.2,66.6,29.85,East,88,0.0,0.0,77,0.00,,,-99.99,74.0,HOBO +U30 +Weather +,2013-06-08 22:07:00,
2013-06-08 18:17:00,75.3,66.7,29.84,East,88,0.0,0.0,74,0.00,,,-99.99,57.0,HOBO +U30 +Weather +,2013-06-08 22:17:00,
2013-06-08 18:27:00,69.1,63.0,29.86,East,88,0.0,0.0,81,0.00,,,-99.99,36.0,HOBO +U30 +Weather +,2013-06-08 22:27:00,
2013-06-08 18:28:00,65.8,62.2,29.85,East,88,0.0,0.0,88,0.00,,,-99.99,23.0,HOBO +U30 +Weather +,2013-06-08 22:28:00,
2013-06-08 18:37:00,64.7,61.7,29.87,East,88,0.0,0.0,90,0.00,,,-99.99,13.0,HOBO +U30 +Weather +,2013-06-08 22:37:00,
2013-06-08 18:38:00,65.8,62.2,29.85,East,88,0.0,0.0,88,0.00,,,-99.99,23.0,HOBO +U30 +Weather +,2013-06-08 22:38:00,
2013-06-08 18:47:00,64.6,61.7,29.87,East,88,0.0,0.0,90,0.00,,,-99.99,14.0,HOBO +U30 +Weather +,2013-06-08 22:47:00,
2013-06-08 18:57:00,64.5,62.1,29.87,East,88,0.0,0.0,91,0.00,,,-99.99,24.0,HOBO +U30 +Weather +,2013-06-08 22:57:00,
2013-06-08 19:07:00,64.2,61.8,29.87,East,86,0.0,0.0,91,0.00,,,-99.99,22.0,HOBO +U30 +Weather +,2013-06-08 23:07:00,
2013-06-08 19:17:00,64.5,62.5,29.88,East,87,0.0,0.0,92,0.00,,,-99.99,26.0,HOBO +U30 +Weather +,2013-06-08 23:17:00,
2013-06-08 19:27:00,65.0,62.8,29.88,East,88,0.0,0.0,92,0.00,,,-99.99,32.0,HOBO +U30 +Weather +,2013-06-08 23:27:00,
2013-06-08 19:37:00,64.7,62.5,29.89,East,88,0.0,0.0,92,0.00,,,-99.99,17.0,HOBO +U30 +Weather +,2013-06-08 23:37:00,
2013-06-08 19:47:00,64.1,62.0,29.89,East,86,0.0,0.0,93,0.00,,,-99.99,11.0,HOBO +U30 +Weather +,2013-06-08 23:47:00,
2013-06-08 19:57:00,62.5,60.8,29.89,East,88,0.0,0.0,94,0.00,,,-99.99,3.0,HOBO +U30 +Weather +,2013-06-08 23:57:00,
2013-06-08 20:07:00,62.0,60.8,29.89,East,88,0.0,0.0,95,0.00,,,-99.99,3.0,HOBO +U30 +Weather +,2013-06-09 00:07:00,
2013-06-08 20:17:00,61.2,60.2,29.89,East,88,0.0,0.0,96,0.00,,,-99.99,1.0,HOBO +U30 +Weather +,2013-06-09 00:17:00,
2013-06-08 20:27:00,61.7,60.9,29.90,East,88,0.0,0.0,97,0.00,,,-99.99,1.0,HOBO +U30 +Weather +,2013-06-09 00:27:00,
2013-06-08 20:37:00,61.8,61.1,29.90,East,88,0.0,0.0,97,0.00,,,-99.99,1.0,HOBO +U30 +Weather +,2013-06-09 00:37:00,
2013-06-08 20:47:00,61.7,61.1,29.90,East,88,0.0,0.0,97,0.00,,,-99.99,1.0,HOBO +U30 +Weather +,2013-06-09 00:47:00,
2013-06-08 20:57:00,61.3,60.8,29.91,East,88,0.0,0.0,98,0.00,,,-99.99,1.0,HOBO +U30 +Weather +,2013-06-09 00:57:00,
2013-06-08 21:07:00,60.7,60.3,29.91,East,88,0.0,0.0,98,0.00,,,-99.99,1.0,HOBO +U30 +Weather +,2013-06-09 01:07:00,
2013-06-08 21:17:00,60.0,59.6,29.91,East,88,0.0,0.0,98,0.00,,,-99.99,1.0,HOBO +U30 +Weather +,2013-06-09 01:17:00,
2013-06-08 21:27:00,60.4,60.1,29.91,East,88,0.0,0.0,99,0.00,,,-99.99,1.0,HOBO +U30 +Weather +,2013-06-09 01:27:00,
2013-06-08 21:37:00,59.9,59.7,29.93,East,88,0.0,0.0,99,0.00,,,-99.99,1.0,HOBO +U30 +Weather +,2013-06-09 01:37:00,
2013-06-08 21:47:00,59.4,59.3,29.93,East,88,0.0,0.0,99,0.00,,,-99.99,1.0,HOBO +U30 +Weather +,2013-06-09 01:47:00,
2013-06-08 21:57:00,58.9,58.8,29.93,East,88,0.0,0.0,99,0.00,,,-99.99,1.0,HOBO +U30 +Weather +,2013-06-09 01:57:00,
2013-06-08 21:58:00,57.9,57.9,29.93,East,88,0.0,0.0,99,0.00,,,-99.99,1.0,HOBO +U30 +Weather +,2013-06-09 01:58:00,
2013-06-08 22:07:00,57.5,57.5,29.93,East,88,0.0,0.0,99,0.00,,,-99.99,1.0,HOBO +U30 +Weather +,2013-06-09 02:07:00,
2013-06-08 22:08:00,57.8,57.8,29.94,East,88,0.0,0.0,99,0.00,,,-99.99,1.0,HOBO +U30 +Weather +,2013-06-09 02:08:00,
2013-06-08 22:17:00,57.5,57.5,29.93,East,88,0.0,0.0,99,0.00,,,-99.99,1.0,HOBO +U30 +Weather +,2013-06-09 02:17:00,
2013-06-08 22:27:00,56.7,56.8,29.93,East,88,0.0,0.0,100,0.00,,,-99.99,1.0,HOBO +U30 +Weather +,2013-06-09 02:27:00,
2013-06-08 22:37:00,56.2,56.2,29.93,East,88,0.0,0.0,100,0.00,,,-99.99,1.0,HOBO +U30 +Weather +,2013-06-09 02:37:00,
2013-06-08 22:47:00,57.0,57.1,29.94,East,88,0.0,0.0,100,0.00,,,-99.99,1.0,HOBO +U30 +Weather +,2013-06-09 02:47:00,
2013-06-08 22:57:00,56.2,56.3,29.94,East,88,0.0,0.0,100,0.00,,,-99.99,1.0,HOBO +U30 +Weather +,2013-06-09 02:57:00,
2013-06-08 23:07:00,55.7,55.7,29.94,East,88,0.0,0.0,100,0.00,,,-99.99,1.0,HOBO +U30 +Weather +,2013-06-09 03:07:00,
2013-06-08 23:17:00,55.7,55.7,29.95,East,88,0.0,0.0,100,0.00,,,-99.99,1.0,HOBO +U30 +Weather +,2013-06-09 03:17:00,
2013-06-08 23:27:00,56.0,56.0,29.95,East,88,0.0,0.0,100,0.00,,,-99.99,1.0,HOBO +U30 +Weather +,2013-06-09 03:27:00,
2013-06-08 23:37:00,57.1,57.1,29.95,East,88,0.0,0.0,100,0.00,,,-99.99,1.0,HOBO +U30 +Weather +,2013-06-09 03:37:00,
2013-06-08 23:47:00,59.1,59.1,29.95,East,88,0.0,0.0,100,0.00,,,-99.99,1.0,HOBO +U30 +Weather +,2013-06-09 03:47:00,
2013-06-08 23:57:00,60.0,60.1,29.96,East,88,0.0,0.0,100,0.00,,,-99.99,1.0,HOBO +U30 +Weather +,2013-06-09 03:57:00,